createdAt,value
2022-09-24T00:01:47.915Z,19.47
2022-09-24T00:06:54.004Z,19.40
2022-09-24T00:12:00.253Z,19.91
2022-09-24T00:17:06.322Z,19.71
2022-09-24T00:22:12.586Z,20.63
2022-09-24T00:27:18.922Z,20.31
2022-09-24T00:32:25.696Z,20.86
2022-09-24T00:37:31.783Z,21.24
2022-09-24T00:42:38.107Z,21.01
2022-09-24T00:47:44.714Z,21.08
2022-09-24T00:52:51.493Z,21.33
2022-09-24T00:57:57.532Z,21.67
2022-09-24T01:03:04.037Z,21.17
2022-09-24T01:08:10.119Z,20.97
2022-09-24T01:13:16.753Z,21.74
2022-09-24T01:18:22.905Z,20.99
2022-09-24T01:23:29.224Z,20.79
2022-09-24T01:28:35.316Z,20.40
2022-09-24T01:33:41.522Z,21.15
2022-09-24T01:38:47.761Z,21.18
2022-09-24T01:43:54.126Z,20.89
2022-09-24T01:49:00.207Z,21.38
2022-09-24T01:54:06.620Z,21.45
2022-09-24T01:59:12.692Z,22.14
2022-09-24T02:04:19.106Z,23.02
2022-09-24T02:09:25.194Z,22.19
2022-09-24T02:14:31.729Z,22.33
2022-09-24T02:19:37.809Z,23.97
2022-09-24T02:24:44.382Z,24.63
2022-09-24T02:29:50.621Z,23.99
2022-09-24T02:34:56.932Z,25.69
2022-09-24T02:40:03.300Z,24.44
2022-09-24T02:45:09.527Z,26.55
2022-09-24T02:50:16.101Z,26.88
2022-09-24T02:55:22.501Z,26.83
2022-09-24T03:00:29.011Z,27.89
2022-09-24T03:05:35.633Z,27.87
2022-09-24T03:10:42.097Z,27.65
2022-09-24T03:15:48.509Z,28.97
2022-09-24T03:20:54.638Z,29.20
2022-09-24T03:26:00.877Z,30.16
2022-09-24T03:31:07.033Z,30.20
2022-09-24T03:36:13.224Z,31.04
2022-09-24T03:41:19.490Z,32.18
2022-09-24T03:46:25.831Z,32.48
2022-09-24T03:51:32.393Z,33.28
2022-09-24T03:56:38.704Z,33.34
2022-09-24T04:01:44.889Z,34.48
2022-09-24T04:06:51.073Z,35.64
2022-09-24T04:11:57.626Z,34.69
2022-09-24T04:17:03.869Z,35.18
2022-09-24T04:22:10.071Z,34.86
2022-09-24T04:27:16.356Z,34.35
2022-09-24T04:32:22.456Z,35.93
2022-09-24T04:37:29.005Z,37.28
2022-09-24T04:42:35.191Z,36.44
2022-09-24T04:47:41.903Z,36.44
2022-09-24T04:52:48.008Z,37.41
2022-09-24T04:57:54.713Z,37.01
2022-09-24T05:03:01.766Z,38.11
2022-09-24T05:08:08.986Z,38.96
2022-09-24T05:13:15.056Z,39.27
2022-09-24T05:18:21.352Z,39.40
2022-09-24T05:23:27.540Z,39.64
2022-09-24T05:28:33.804Z,41.02
2022-09-24T05:33:39.966Z,36.48
2022-09-24T05:38:46.150Z,36.93
2022-09-24T05:43:52.410Z,37.24
2022-09-24T05:48:58.758Z,35.59
2022-09-24T05:54:04.971Z,35.39
2022-09-24T05:59:11.279Z,35.92
2022-09-24T06:04:17.581Z,35.06
2022-09-24T06:09:23.827Z,33.17
2022-09-24T06:14:30.125Z,32.78
2022-09-24T06:19:36.278Z,31.70
2022-09-24T06:24:42.696Z,32.71
2022-09-24T06:29:48.930Z,31.51
2022-09-24T06:34:58.989Z,30.80
2022-09-24T06:40:00.997Z,30.32
2022-09-24T06:45:07.310Z,29.63
2022-09-24T06:50:13.620Z,30.25
2022-09-24T06:55:19.822Z,31.15
2022-09-24T07:00:26.089Z,31.25
2022-09-24T07:05:32.167Z,33.58
2022-09-24T07:10:38.410Z,31.80
2022-09-24T07:15:44.628Z,33.81
2022-09-24T07:21:21.120Z,38.09
2022-09-24T07:26:27.338Z,35.56
2022-09-24T07:31:33.725Z,35.61
2022-09-24T07:36:39.666Z,34.92
2022-09-24T07:41:46.015Z,36.45
2022-09-24T07:46:52.334Z,36.04
2022-09-24T07:51:58.561Z,33.69
2022-09-24T07:57:04.723Z,35.44
2022-09-24T08:02:11.461Z,34.40
2022-09-24T08:07:17.597Z,35.46
2022-09-24T08:12:24.138Z,33.49
2022-09-24T08:17:30.407Z,32.43
2022-09-24T08:22:36.505Z,34.15
2022-09-24T08:27:42.651Z,32.38
2022-09-24T08:32:49.039Z,31.89
2022-09-24T08:37:55.207Z,33.25
2022-09-24T08:43:05.474Z,33.02
2022-09-24T08:48:07.125Z,32.79
2022-09-24T08:53:13.833Z,33.10
2022-09-24T08:58:20.423Z,31.86
2022-09-24T09:03:26.723Z,30.88
2022-09-24T09:08:55.012Z,30.73
2022-09-24T09:13:39.477Z,28.56
2022-09-24T09:18:45.998Z,29.44
2022-09-24T09:23:52.663Z,29.07
2022-09-24T09:28:59.218Z,28.96
2022-09-24T09:34:05.650Z,29.01
2022-09-24T09:39:11.964Z,28.82
2022-09-24T09:44:18.842Z,29.28
2022-09-24T09:49:25.003Z,28.76
2022-09-24T09:54:31.338Z,27.57
2022-09-24T09:59:37.603Z,27.58
2022-09-24T10:04:44.376Z,26.74
2022-09-24T10:09:50.575Z,26.07
2022-09-24T10:14:57.693Z,25.73
2022-09-24T10:20:04.239Z,25.01
2022-09-24T10:25:12.508Z,25.07
2022-09-24T10:30:18.680Z,24.29
2022-09-24T10:35:25.045Z,22.57
2022-09-24T10:40:31.451Z,20.81
2022-09-24T10:45:37.022Z,20.55
2022-09-24T10:50:43.281Z,22.14
2022-09-24T10:55:49.550Z,19.47
2022-09-24T11:00:55.744Z,20.48
2022-09-24T11:06:02.129Z,19.16
2022-09-24T11:11:08.625Z,20.78
2022-09-24T11:16:15.199Z,19.68
2022-09-24T11:21:21.227Z,20.45
2022-09-24T11:26:27.456Z,19.88
2022-09-24T11:31:33.641Z,20.63
2022-09-24T11:36:39.819Z,21.26
2022-09-24T11:41:45.945Z,20.84
2022-09-24T11:46:52.803Z,20.63
2022-09-24T11:51:59.386Z,20.80
2022-09-24T11:57:05.646Z,20.87
2022-09-24T12:02:11.903Z,21.43
2022-09-24T12:07:18.072Z,20.04
2022-09-24T12:12:24.646Z,21.70
2022-09-24T12:17:31.314Z,20.39
2022-09-24T12:22:37.464Z,20.21
2022-09-24T12:27:43.654Z,18.44
2022-09-24T12:32:50.230Z,19.43
2022-09-24T12:37:56.858Z,19.45
2022-09-24T12:43:03.053Z,19.33
2022-09-24T12:48:09.237Z,19.58
2022-09-24T12:53:15.744Z,20.42
2022-09-24T12:58:21.993Z,20.15
2022-09-24T13:03:28.720Z,19.39
2022-09-24T13:08:35.225Z,19.66
2022-09-24T13:13:41.500Z,19.54
2022-09-24T13:18:47.932Z,19.44
2022-09-24T13:23:53.993Z,19.29
2022-09-24T13:29:00.278Z,19.87
2022-09-24T13:34:06.600Z,17.98
2022-09-24T13:39:13.329Z,18.43
2022-09-24T13:44:19.551Z,17.52
2022-09-24T13:49:26.814Z,16.64
2022-09-24T13:54:33.078Z,16.32
2022-09-24T13:59:39.386Z,16.11
2022-09-24T14:04:45.523Z,14.28
2022-09-24T14:09:52.153Z,11.38
2022-09-24T14:14:58.459Z,11.22
2022-09-24T14:20:04.785Z,11.63
2022-09-24T14:25:10.929Z,11.47
2022-09-24T14:30:17.625Z,10.86
2022-09-24T14:35:26.622Z,9.84
2022-09-24T14:40:29.640Z,8.74
2022-09-24T14:45:35.704Z,7.87
2022-09-24T14:50:41.964Z,6.23
2022-09-24T14:55:48.096Z,5.20
2022-09-24T15:00:54.427Z,5.00
2022-09-24T15:06:00.609Z,3.98
2022-09-24T15:11:07.169Z,2.95
2022-09-24T15:16:13.310Z,2.78
2022-09-24T15:21:19.685Z,2.39
2022-09-24T15:26:26.061Z,2.56
2022-09-24T15:31:32.880Z,2.45
2022-09-24T15:37:09.832Z,2.72
2022-09-24T15:42:16.092Z,2.40
2022-09-24T15:47:23.171Z,2.74
2022-09-24T15:52:29.438Z,2.77
2022-09-24T15:57:35.581Z,2.89
2022-09-24T16:02:41.911Z,2.87
2022-09-24T16:07:48.144Z,2.93
2022-09-24T16:12:54.641Z,2.79
2022-09-24T16:18:12.643Z,3.02
2022-09-24T16:23:19.030Z,3.18
2022-09-24T16:28:25.374Z,3.06
2022-09-24T16:33:31.651Z,3.07
2022-09-24T16:38:37.753Z,2.96
2022-09-24T16:43:44.019Z,2.76
2022-09-24T16:48:50.180Z,3.28
2022-09-24T16:53:56.539Z,3.22
2022-09-24T16:59:02.708Z,2.93
2022-09-24T17:04:08.897Z,2.72
2022-09-24T17:09:15.110Z,2.95
2022-09-24T17:14:21.350Z,3.82
2022-09-24T17:19:27.474Z,4.17
2022-09-24T17:24:34.294Z,5.87
2022-09-24T17:29:40.469Z,8.30
2022-09-24T17:34:47.009Z,10.29
2022-09-24T17:39:53.480Z,12.84
2022-09-24T17:44:59.691Z,14.51
2022-09-24T17:50:06.269Z,14.65
2022-09-24T17:55:12.684Z,15.59
2022-09-24T18:00:19.196Z,17.01
2022-09-24T18:05:25.914Z,18.37
2022-09-24T18:10:32.003Z,18.62
2022-09-24T18:15:38.806Z,20.29
2022-09-24T18:20:44.746Z,21.30
2022-09-24T18:25:51.267Z,21.74
2022-09-24T18:30:57.477Z,22.17
2022-09-24T18:36:03.758Z,21.36
2022-09-24T18:41:09.831Z,21.47
2022-09-24T18:46:16.094Z,22.28
2022-09-24T18:51:22.317Z,21.57
2022-09-24T18:56:29.066Z,19.80
2022-09-24T19:01:35.298Z,17.66
2022-09-24T19:06:41.389Z,16.41
2022-09-24T19:11:47.601Z,14.37
2022-09-24T19:17:45.949Z,15.51
2022-09-24T19:22:52.045Z,14.00
2022-09-24T19:27:58.212Z,14.48
2022-09-24T19:33:04.773Z,14.11
2022-09-24T19:38:11.087Z,14.13
2022-09-24T19:43:17.612Z,13.82
2022-09-24T19:48:23.838Z,14.26
2022-09-24T19:53:30.238Z,15.25
2022-09-24T19:58:36.462Z,14.92
2022-09-24T20:03:42.564Z,15.26
2022-09-24T20:08:48.847Z,15.80
2022-09-24T20:13:55.097Z,13.61
2022-09-24T20:19:02.281Z,14.18
2022-09-24T20:24:08.559Z,13.86
2022-09-24T20:29:15.040Z,14.93
2022-09-24T20:34:21.929Z,14.49
2022-09-24T20:39:28.082Z,14.27
2022-09-24T20:44:34.217Z,14.41
2022-09-24T20:49:40.574Z,12.70
2022-09-24T20:54:46.719Z,13.19
2022-09-24T20:59:52.974Z,13.62
2022-09-24T21:04:59.376Z,13.98
2022-09-24T21:10:06.989Z,12.50
2022-09-24T21:15:13.141Z,10.96
2022-09-24T21:20:19.923Z,10.14
2022-09-24T21:25:49.412Z,8.16
2022-09-24T21:30:31.876Z,6.31
2022-09-24T21:35:37.978Z,4.30
2022-09-24T21:40:44.334Z,3.58
2022-09-24T21:45:50.507Z,3.54
2022-09-24T21:50:56.739Z,2.56
2022-09-24T21:56:02.869Z,2.47
2022-09-24T22:01:09.245Z,3.08
2022-09-24T22:06:15.661Z,2.69
2022-09-24T22:11:21.947Z,2.53
2022-09-24T22:16:28.452Z,2.43
2022-09-24T22:21:34.709Z,2.67
2022-09-24T22:26:40.774Z,2.61
2022-09-24T22:31:47.073Z,2.82
2022-09-24T22:36:53.528Z,2.57
2022-09-24T22:41:59.778Z,2.77
2022-09-24T22:47:05.922Z,2.76
2022-09-24T22:52:12.603Z,2.73
2022-09-24T22:57:18.764Z,2.36
2022-09-24T23:02:25.078Z,2.71
2022-09-24T23:07:31.151Z,2.98
2022-09-24T23:12:37.781Z,3.19
2022-09-24T23:17:43.892Z,2.62
2022-09-24T23:22:51.578Z,2.50
2022-09-24T23:27:57.689Z,2.51
2022-09-24T23:33:04.252Z,2.73
2022-09-24T23:38:10.395Z,2.85
2022-09-24T23:43:16.720Z,2.53
2022-09-24T23:48:22.933Z,2.41
2022-09-24T23:53:29.077Z,2.70
2022-09-24T23:58:35.159Z,2.34
